Time,TemperatureF,DewpointF,PressureIn,WindDirection,WindDirectionDegrees,WindSpeedMPH,WindSpeedGustMPH,Humidity,HourlyPrecipIn,Conditions,Clouds,dailyrainin,SoftwareType,DateUTC
2013-09-09 00:03:00,72.5,69.4,29.86,SE,131,0.0,0.0,90,0.00,,,0.00,Wunderground v.1.15,2013-09-09 05:03:00,
2013-09-09 00:09:00,72.5,69.7,29.86,SE,131,0.0,1.0,91,0.00,,,0.00,Wunderground v.1.15,2013-09-09 05:09:00,
2013-09-09 00:15:00,72.3,69.2,29.86,SE,131,0.0,0.0,90,0.00,,,0.00,Wunderground v.1.15,2013-09-09 05:15:00,
2013-09-09 00:20:00,72.3,69.5,29.86,SE,131,0.0,0.0,91,0.00,,,0.00,Wunderground v.1.15,2013-09-09 05:20:00,
2013-09-09 00:26:00,72.1,69.3,29.86,SE,131,1.0,5.0,91,0.00,,,0.00,Wunderground v.1.15,2013-09-09 05:26:00,
2013-09-09 00:31:00,72.0,69.2,29.86,SE,131,0.0,0.0,91,0.00,,,0.00,Wunderground v.1.15,2013-09-09 05:31:00,
2013-09-09 00:37:00,72.0,69.2,29.86,SE,131,0.0,0.0,91,0.00,,,0.00,Wunderground v.1.15,2013-09-09 05:37:00,
2013-09-09 00:42:00,72.0,69.2,29.86,SE,131,0.0,0.0,91,0.00,,,0.00,Wunderground v.1.15,2013-09-09 05:42:00,
2013-09-09 00:48:00,71.8,69.3,29.86,SE,131,0.0,0.0,92,0.00,,,0.00,Wunderground v.1.15,2013-09-09 05:48:00,
2013-09-09 00:54:00,71.8,69.3,29.86,SE,131,0.0,0.0,92,0.00,,,0.00,Wunderground v.1.15,2013-09-09 05:54:00,
2013-09-09 00:59:00,71.6,69.2,29.86,SE,131,0.0,0.0,92,0.00,,,0.00,Wunderground v.1.15,2013-09-09 05:59:00,
2013-09-09 01:05:00,71.8,69.3,29.86,SE,131,0.0,0.0,92,0.00,,,0.00,Wunderground v.1.15,2013-09-09 06:05:00,
2013-09-09 01:10:00,71.8,69.3,29.86,SE,131,0.0,0.0,92,0.00,,,0.00,Wunderground v.1.15,2013-09-09 06:10:00,
2013-09-09 01:16:00,71.8,69.7,29.85,SE,131,0.0,0.0,93,0.00,,,0.00,Wunderground v.1.15,2013-09-09 06:16:00,
2013-09-09 01:22:00,71.6,69.5,29.85,SE,131,0.0,0.0,93,0.00,,,0.00,Wunderground v.1.15,2013-09-09 06:22:00,
2013-09-09 01:27:00,71.6,69.5,29.85,SE,131,0.0,0.0,93,0.00,,,0.00,Wunderground v.1.15,2013-09-09 06:27:00,
2013-09-09 01:33:00,71.5,69.4,29.85,SE,131,0.0,0.0,93,0.00,,,0.00,Wunderground v.1.15,2013-09-09 06:33:00,
2013-09-09 01:38:00,71.5,70.0,29.85,SE,131,0.0,0.0,95,0.00,,,0.00,Wunderground v.1.15,2013-09-09 06:38:00,
2013-09-09 01:44:00,71.3,69.8,29.85,SE,131,0.0,0.0,95,0.00,,,0.00,Wunderground v.1.15,2013-09-09 06:44:00,
2013-09-09 01:49:00,71.3,70.1,29.85,SE,131,0.0,0.0,96,0.00,,,0.00,Wunderground v.1.15,2013-09-09 06:49:00,
2013-09-09 01:55:00,71.3,70.1,29.85,SE,131,0.0,0.0,96,0.00,,,0.00,Wunderground v.1.15,2013-09-09 06:55:00,
2013-09-09 02:00:00,71.3,70.4,29.85,SE,131,0.0,0.0,97,0.00,,,0.00,Wunderground v.1.15,2013-09-09 07:00:00,
2013-09-09 02:05:00,71.3,70.4,29.85,SE,131,0.0,3.0,97,0.00,,,0.00,Wunderground v.1.15,2013-09-09 07:05:00,
2013-09-09 02:10:00,71.3,70.4,29.85,SE,131,0.0,0.0,97,0.00,,,0.00,Wunderground v.1.15,2013-09-09 07:10:00,
2013-09-09 02:15:00,71.3,70.4,29.85,SE,131,0.0,2.0,97,0.00,,,0.00,Wunderground v.1.15,2013-09-09 07:15:00,
2013-09-09 02:20:00,71.1,70.2,29.85,SE,131,0.0,0.0,97,0.00,,,0.00,Wunderground v.1.15,2013-09-09 07:20:00,
2013-09-09 02:25:00,71.3,70.7,29.85,SE,131,0.0,4.0,98,0.00,,,0.00,Wunderground v.1.15,2013-09-09 07:25:00,
2013-09-09 02:30:00,71.3,70.7,29.84,SE,131,2.0,2.0,98,0.00,,,0.00,Wunderground v.1.15,2013-09-09 07:30:00,
2013-09-09 02:35:00,71.3,70.7,29.84,SE,131,0.0,2.0,98,0.00,,,0.00,Wunderground v.1.15,2013-09-09 07:35:00,
2013-09-09 02:40:00,71.1,70.5,29.84,SE,131,0.0,0.0,98,0.00,,,0.00,Wunderground v.1.15,2013-09-09 07:40:00,
2013-09-09 02:45:00,71.1,70.5,29.84,SE,131,0.0,1.0,98,0.00,,,0.00,Wunderground v.1.15,2013-09-09 07:45:00,
2013-09-09 02:50:00,71.1,70.5,29.84,SE,131,0.0,1.0,98,0.00,,,0.00,Wunderground v.1.15,2013-09-09 07:50:00,
2013-09-09 02:55:00,70.9,70.3,29.84,SE,130,0.0,3.0,98,0.00,,,0.00,Wunderground v.1.15,2013-09-09 07:55:00,
2013-09-09 03:01:00,70.9,70.6,29.84,SE,130,0.0,0.0,99,0.00,,,0.00,Wunderground v.1.15,2013-09-09 08:01:00,
2013-09-09 03:06:00,70.8,70.5,29.84,SE,130,0.0,1.0,99,0.00,,,0.00,Wunderground v.1.15,2013-09-09 08:06:00,
2013-09-09 03:11:00,70.8,70.5,29.84,SE,130,0.0,0.0,99,0.00,,,0.00,Wunderground v.1.15,2013-09-09 08:11:00,
2013-09-09 03:16:00,70.8,70.5,29.83,SE,131,0.0,1.0,99,0.00,,,0.00,Wunderground v.1.15,2013-09-09 08:16:00,
2013-09-09 03:21:00,70.9,70.6,29.83,SE,131,0.0,1.0,99,0.00,,,0.00,Wunderground v.1.15,2013-09-09 08:21:00,
2013-09-09 03:26:00,70.8,70.5,29.83,SE,131,0.0,1.0,99,0.00,,,0.00,Wunderground v.1.15,2013-09-09 08:26:00,
2013-09-09 03:31:00,70.9,70.6,29.84,SE,136,1.0,1.0,99,0.00,,,0.00,Wunderground v.1.15,2013-09-09 08:31:00,
2013-09-09 03:36:00,70.9,70.6,29.84,SE,141,0.0,5.0,99,0.00,,,0.00,Wunderground v.1.15,2013-09-09 08:36:00,
2013-09-09 03:41:00,70.9,70.6,29.84,SE,141,0.0,0.0,99,0.00,,,0.00,Wunderground v.1.15,2013-09-09 08:41:00,
2013-09-09 03:46:00,70.9,70.6,29.83,SE,141,0.0,2.0,99,0.00,,,0.00,Wunderground v.1.15,2013-09-09 08:46:00,
2013-09-09 03:51:00,70.9,70.9,29.83,SE,141,0.0,1.0,100,0.00,,,0.00,Wunderground v.1.15,2013-09-09 08:51:00,
2013-09-09 03:56:00,71.1,71.1,29.83,SE,141,0.0,2.0,100,0.00,,,0.00,Wunderground v.1.15,2013-09-09 08:56:00,
2013-09-09 04:01:00,70.9,70.9,29.83,SE,141,0.0,0.0,100,0.00,,,0.00,Wunderground v.1.15,2013-09-09 09:01:00,
2013-09-09 04:06:00,71.1,71.1,29.83,SE,138,0.0,3.0,100,0.00,,,0.00,Wunderground v.1.15,2013-09-09 09:06:00,
2013-09-09 04:11:00,71.1,71.1,29.83,ESE,109,0.0,1.0,100,0.00,,,0.00,Wunderground v.1.15,2013-09-09 09:11:00,
2013-09-09 04:16:00,71.1,71.1,29.83,ESE,112,3.0,3.0,100,0.00,,,0.00,Wunderground v.1.15,2013-09-09 09:16:00,
2013-09-09 04:21:00,71.1,71.1,29.83,ESE,110,0.0,2.0,100,0.00,,,0.00,Wunderground v.1.15,2013-09-09 09:21:00,
2013-09-09 04:26:00,71.1,71.1,29.83,SE,130,0.0,6.0,100,0.00,,,0.00,Wunderground v.1.15,2013-09-09 09:26:00,
2013-09-09 04:31:00,71.3,71.3,29.83,ESE,116,0.0,2.0,100,0.00,,,0.00,Wunderground v.1.15,2013-09-09 09:31:00,
2013-09-09 04:36:00,71.3,71.3,29.83,SE,138,0.0,5.0,100,0.00,,,0.00,Wunderground v.1.15,2013-09-09 09:36:00,
2013-09-09 04:41:00,71.3,71.3,29.83,SE,134,0.0,6.0,100,0.00,,,0.00,Wunderground v.1.15,2013-09-09 09:41:00,
2013-09-09 04:46:00,71.5,71.5,29.83,SE,134,2.0,6.0,100,0.00,,,0.00,Wunderground v.1.15,2013-09-09 09:46:00,
2013-09-09 04:51:00,71.5,71.5,29.83,SE,143,0.0,2.0,100,0.00,,,0.00,Wunderground v.1.15,2013-09-09 09:51:00,
2013-09-09 04:56:00,71.5,71.5,29.83,SE,144,2.0,2.0,100,0.00,,,0.00,Wunderground v.1.15,2013-09-09 09:56:00,
2013-09-09 05:01:00,71.5,71.5,29.82,SE,145,0.0,2.0,100,0.00,,,0.00,Wunderground v.1.15,2013-09-09 10:01:00,
2013-09-09 05:06:00,71.5,71.5,29.82,SE,144,0.0,6.0,100,0.00,,,0.00,Wunderground v.1.15,2013-09-09 10:06:00,
2013-09-09 05:11:00,71.5,71.5,29.82,SE,144,0.0,2.0,100,0.00,,,0.00,Wunderground v.1.15,2013-09-09 10:11:00,
2013-09-09 05:16:00,71.6,71.6,29.82,SSE,151,0.0,6.0,100,0.00,,,0.00,Wunderground v.1.15,2013-09-09 10:16:00,
2013-09-09 05:21:00,71.6,71.6,29.82,SSE,151,1.0,1.0,100,0.00,,,0.00,Wunderground v.1.15,2013-09-09 10:21:00,
2013-09-09 05:26:00,71.6,71.6,29.82,SSW,192,0.0,7.0,100,0.00,,,0.00,Wunderground v.1.15,2013-09-09 10:26:00,
2013-09-09 05:31:00,71.6,71.6,29.82,SSE,160,1.0,5.0,100,0.00,,,0.00,Wunderground v.1.15,2013-09-09 10:31:00,
2013-09-09 05:36:00,71.8,71.8,29.82,SSE,154,2.0,7.0,100,0.00,,,0.00,Wunderground v.1.15,2013-09-09 10:36:00,
2013-09-09 05:41:00,72.0,72.0,29.82,SSE,151,1.0,7.0,100,0.00,,,0.00,Wunderground v.1.15,2013-09-09 10:41:00,
2013-09-09 05:46:00,72.0,72.0,29.83,SSE,158,0.0,7.0,100,0.00,,,0.00,Wunderground v.1.15,2013-09-09 10:46:00,
2013-09-09 05:51:00,72.0,72.0,29.83,SSE,161,0.0,5.0,100,0.00,,,0.00,Wunderground v.1.15,2013-09-09 10:51:00,
2013-09-09 05:56:00,72.0,72.0,29.83,SSE,160,0.0,8.0,100,0.00,,,0.00,Wunderground v.1.15,2013-09-09 10:56:00,
2013-09-09 06:01:00,72.0,71.7,29.83,SSW,192,2.0,8.0,99,0.00,,,0.00,Wunderground v.1.15,2013-09-09 11:01:00,
2013-09-09 06:06:00,72.0,71.7,29.83,South,171,2.0,8.0,99,0.00,,,0.00,Wunderground v.1.15,2013-09-09 11:06:00,
2013-09-09 06:11:00,71.8,71.5,29.83,SSE,160,5.0,11.0,99,0.00,,,0.00,Wunderground v.1.15,2013-09-09 11:11:00,
2013-09-09 06:17:00,71.8,71.5,29.83,SSE,154,2.0,11.0,99,0.00,,,0.00,Wunderground v.1.15,2013-09-09 11:17:00,
2013-09-09 06:22:00,71.8,71.5,29.83,SSE,147,3.0,6.0,99,0.00,,,0.00,Wunderground v.1.15,2013-09-09 11:22:00,
2013-09-09 06:27:00,71.8,71.5,29.83,SSE,154,2.0,7.0,99,0.00,,,0.00,Wunderground v.1.15,2013-09-09 11:27:00,
2013-09-09 06:32:00,71.8,71.5,29.83,SSE,164,1.0,6.0,99,0.00,,,0.00,Wunderground v.1.15,2013-09-09 11:32:00,
2013-09-09 06:37:00,71.6,71.3,29.83,SW,226,3.0,7.0,99,0.00,,,0.00,Wunderground v.1.15,2013-09-09 11:37:00,
2013-09-09 06:42:00,71.6,71.3,29.83,South,172,4.0,10.0,99,0.00,,,0.00,Wunderground v.1.15,2013-09-09 11:42:00,
2013-09-09 06:47:00,71.6,71.3,29.83,SSE,157,7.0,11.0,99,0.00,,,0.00,Wunderground v.1.15,2013-09-09 11:47:00,
2013-09-09 06:52:00,71.6,71.3,29.83,SSE,168,1.0,7.0,99,0.00,,,0.00,Wunderground v.1.15,2013-09-09 11:52:00,
2013-09-09 06:57:00,71.6,71.3,29.83,South,181,3.0,7.0,99,0.00,,,0.00,Wunderground v.1.15,2013-09-09 11:57:00,
2013-09-09 07:02:00,71.6,71.3,29.83,South,191,3.0,7.0,99,0.00,,,0.00,Wunderground v.1.15,2013-09-09 12:02:00,
2013-09-09 07:07:00,71.6,71.3,29.83,South,171,3.0,8.0,99,0.00,,,0.00,Wunderground v.1.15,2013-09-09 12:07:00,
2013-09-09 07:12:00,71.6,71.3,29.83,South,191,0.0,6.0,99,0.00,,,0.00,Wunderground v.1.15,2013-09-09 12:12:00,
2013-09-09 07:17:00,71.6,71.3,29.84,SSE,158,0.0,10.0,99,0.00,,,0.00,Wunderground v.1.15,2013-09-09 12:17:00,
2013-09-09 07:22:00,71.6,71.3,29.84,South,186,6.0,6.0,99,0.00,,,0.00,Wunderground v.1.15,2013-09-09 12:22:00,
2013-09-09 07:27:00,71.8,71.5,29.84,SSE,152,2.0,11.0,99,0.00,,,0.00,Wunderground v.1.15,2013-09-09 12:27:00,
2013-09-09 07:32:00,71.8,71.5,29.84,SSW,195,0.0,8.0,99,0.00,,,0.00,Wunderground v.1.15,2013-09-09 12:32:00,
2013-09-09 07:37:00,71.8,71.5,29.84,SSE,167,2.0,8.0,99,0.00,,,0.00,Wunderground v.1.15,2013-09-09 12:37:00,
2013-09-09 07:42:00,72.0,71.7,29.84,South,169,4.0,7.0,99,0.00,,,0.00,Wunderground v.1.15,2013-09-09 12:42:00,
2013-09-09 07:47:00,72.0,71.7,29.84,South,171,3.0,8.0,99,0.00,,,0.00,Wunderground v.1.15,2013-09-09 12:47:00,
2013-09-09 07:52:00,72.1,71.8,29.84,SSE,152,6.0,6.0,99,0.00,,,0.00,Wunderground v.1.15,2013-09-09 12:52:00,
2013-09-09 07:57:00,72.3,72.3,29.84,South,176,2.0,7.0,100,0.00,,,0.00,Wunderground v.1.15,2013-09-09 12:57:00,
2013-09-09 08:02:00,72.5,72.2,29.84,South,169,1.0,6.0,99,0.00,,,0.00,Wunderground v.1.15,2013-09-09 13:02:00,
2013-09-09 08:07:00,72.8,72.5,29.84,SSW,210,2.0,10.0,99,0.00,,,0.00,Wunderground v.1.15,2013-09-09 13:07:00,
2013-09-09 08:12:00,73.2,72.6,29.84,SSW,210,7.0,10.0,98,0.00,,,0.00,Wunderground v.1.15,2013-09-09 13:12:00,
2013-09-09 08:17:00,73.5,72.6,29.84,SSE,154,0.0,10.0,97,0.00,,,0.00,Wunderground v.1.15,2013-09-09 13:17:00,
2013-09-09 08:22:00,73.7,71.9,29.84,SSE,168,2.0,6.0,94,0.00,,,0.00,Wunderground v.1.15,2013-09-09 13:22:00,
2013-09-09 08:27:00,74.2,72.0,29.84,SSE,161,1.0,7.0,93,0.00,,,0.00,Wunderground v.1.15,2013-09-09 13:27:00,
2013-09-09 08:32:00,74.4,71.9,29.84,SW,216,1.0,8.0,92,0.00,,,0.00,Wunderground v.1.15,2013-09-09 13:32:00,
2013-09-09 08:37:00,74.9,72.1,29.84,SW,230,4.0,8.0,91,0.00,,,0.00,Wunderground v.1.15,2013-09-09 13:37:00,
2013-09-09 08:42:00,75.1,72.0,29.84,South,182,0.0,6.0,90,0.00,,,0.00,Wunderground v.1.15,2013-09-09 13:42:00,
2013-09-09 08:47:00,75.4,71.9,29.84,SW,229,0.0,10.0,89,0.00,,,0.00,Wunderground v.1.15,2013-09-09 13:47:00,
2013-09-09 08:52:00,75.8,72.0,29.84,South,175,3.0,6.0,88,0.00,,,0.00,Wunderground v.1.15,2013-09-09 13:52:00,
2013-09-09 08:57:00,76.0,71.8,29.84,SSW,210,0.0,7.0,87,0.00,,,0.00,Wunderground v.1.15,2013-09-09 13:57:00,
2013-09-09 09:02:00,76.5,72.3,29.84,SSW,208,0.0,5.0,87,0.00,,,0.00,Wunderground v.1.15,2013-09-09 14:02:00,
2013-09-09 09:07:00,76.8,72.3,29.84,SSE,158,2.0,6.0,86,0.00,,,0.00,Wunderground v.1.15,2013-09-09 14:07:00,
2013-09-09 09:12:00,77.2,72.7,29.84,SSE,150,0.0,5.0,86,0.00,,,0.00,Wunderground v.1.15,2013-09-09 14:12:00,
2013-09-09 09:17:00,77.7,72.5,29.84,SW,217,1.0,10.0,84,0.00,,,0.00,Wunderground v.1.15,2013-09-09 14:17:00,
2013-09-09 09:22:00,78.1,72.9,29.84,SW,217,2.0,5.0,84,0.00,,,0.00,Wunderground v.1.15,2013-09-09 14:22:00,
2013-09-09 09:27:00,78.3,72.7,29.84,SW,230,3.0,7.0,83,0.00,,,0.00,Wunderground v.1.15,2013-09-09 14:27:00,
2013-09-09 09:32:00,78.6,72.3,29.84,SSW,198,4.0,6.0,81,0.00,,,0.00,Wunderground v.1.15,2013-09-09 14:32:00,
2013-09-09 09:37:00,79.0,72.7,29.84,SSE,155,0.0,8.0,81,0.00,,,0.00,Wunderground v.1.15,2013-09-09 14:37:00,
2013-09-09 09:42:00,79.6,73.3,29.84,WSW,237,0.0,2.0,81,0.00,,,0.00,Wunderground v.1.15,2013-09-09 14:42:00,
2013-09-09 09:47:00,80.1,72.6,29.84,SW,234,5.0,7.0,78,0.00,,,0.00,Wunderground v.1.15,2013-09-09 14:47:00,
2013-09-09 09:52:00,80.3,72.8,29.84,SW,226,6.0,8.0,78,0.00,,,0.00,Wunderground v.1.15,2013-09-09 14:52:00,
2013-09-09 09:57:00,80.7,73.2,29.84,South,189,0.0,8.0,78,0.00,,,0.00,Wunderground v.1.15,2013-09-09 14:57:00,
2013-09-09 10:02:00,80.9,72.6,29.84,SSW,210,5.0,10.0,76,0.00,,,0.00,Wunderground v.1.15,2013-09-09 15:02:00,
2013-09-09 10:07:00,81.2,72.9,29.84,SW,226,8.0,10.0,76,0.00,,,0.00,Wunderground v.1.15,2013-09-09 15:07:00,
2013-09-09 10:12:00,81.6,72.9,29.84,SW,226,2.0,6.0,75,0.00,,,0.00,Wunderground v.1.15,2013-09-09 15:12:00,
2013-09-09 10:17:00,82.0,72.9,29.83,South,185,3.0,9.0,74,0.00,,,0.00,Wunderground v.1.15,2013-09-09 15:17:00,
2013-09-09 10:22:00,82.2,73.1,29.83,WNW,285,0.0,6.0,74,0.00,,,0.00,Wunderground v.1.15,2013-09-09 15:22:00,
2013-09-09 10:27:00,82.8,72.8,29.83,SSE,157,0.0,8.0,72,0.00,,,0.00,Wunderground v.1.15,2013-09-09 15:27:00,
2013-09-09 10:32:00,83.2,72.8,29.83,South,188,6.0,11.0,71,0.00,,,0.00,Wunderground v.1.15,2013-09-09 15:32:00,
2013-09-09 10:37:00,83.4,72.6,29.83,SSW,210,10.0,11.0,70,0.00,,,0.00,Wunderground v.1.15,2013-09-09 15:37:00,
2013-09-09 10:42:00,83.6,72.3,29.83,SSW,206,2.0,11.0,69,0.00,,,0.00,Wunderground v.1.15,2013-09-09 15:42:00,
2013-09-09 10:47:00,84.3,73.0,29.83,SW,233,0.0,12.0,69,0.00,,,0.00,Wunderground v.1.15,2013-09-09 15:47:00,
2013-09-09 10:52:00,84.7,72.1,29.83,SSW,205,6.0,10.0,66,0.00,,,0.00,Wunderground v.1.15,2013-09-09 15:52:00,
2013-09-09 10:57:00,85.1,72.9,29.83,SW,220,6.0,10.0,67,0.00,,,0.00,Wunderground v.1.15,2013-09-09 15:57:00,
2013-09-09 11:02:00,85.5,72.8,29.83,SSW,199,0.0,8.0,66,0.00,,,0.00,Wunderground v.1.15,2013-09-09 16:02:00,
2013-09-09 11:08:00,85.7,72.1,29.83,SW,222,7.0,11.0,64,0.00,,,0.00,Wunderground v.1.15,2013-09-09 16:08:00,
2013-09-09 11:13:00,86.1,72.5,29.83,SSW,192,0.0,12.0,64,0.00,,,0.00,Wunderground v.1.15,2013-09-09 16:13:00,
2013-09-09 11:18:00,86.5,71.9,29.82,SSE,152,1.0,12.0,62,0.00,,,0.00,Wunderground v.1.15,2013-09-09 16:18:00,
2013-09-09 11:22:00,86.7,71.6,29.82,SW,226,3.0,8.0,61,0.00,,,0.00,Wunderground v.1.15,2013-09-09 16:22:00,
2013-09-09 11:28:00,87.4,71.8,29.82,WSW,250,0.0,8.0,60,0.00,,,0.00,Wunderground v.1.15,2013-09-09 16:28:00,
2013-09-09 11:33:00,87.6,72.0,29.82,WSW,256,0.0,8.0,60,0.00,,,0.00,Wunderground v.1.15,2013-09-09 16:33:00,
2013-09-09 11:38:00,87.6,72.0,29.82,South,182,5.0,11.0,60,0.00,,,0.00,Wunderground v.1.15,2013-09-09 16:38:00,
2013-09-09 11:43:00,87.6,71.5,29.82,WSW,243,2.0,10.0,59,0.00,,,0.00,Wunderground v.1.15,2013-09-09 16:43:00,
2013-09-09 11:48:00,88.0,71.4,29.82,WNW,294,6.0,11.0,58,0.00,,,0.00,Wunderground v.1.15,2013-09-09 16:48:00,
2013-09-09 11:53:00,88.0,71.4,29.82,WSW,243,0.0,10.0,58,0.00,,,0.00,Wunderground v.1.15,2013-09-09 16:53:00,
2013-09-09 11:58:00,88.6,71.4,29.82,SSW,206,2.0,10.0,57,0.00,,,0.00,Wunderground v.1.15,2013-09-09 16:58:00,
2013-09-09 12:03:00,88.6,71.4,29.82,SW,220,6.0,8.0,57,0.00,,,0.00,Wunderground v.1.15,2013-09-09 17:03:00,
2013-09-09 12:08:00,88.8,71.1,29.82,WSW,239,0.0,10.0,56,0.00,,,0.00,Wunderground v.1.15,2013-09-09 17:08:00,
2013-09-09 12:13:00,89.0,71.3,29.82,West,274,4.0,11.0,56,0.00,,,0.00,Wunderground v.1.15,2013-09-09 17:13:00,
2013-09-09 12:18:00,89.3,71.5,29.81,SSW,202,2.0,11.0,56,0.00,,,0.00,Wunderground v.1.15,2013-09-09 17:18:00,
2013-09-09 12:23:00,89.5,71.7,29.81,WNW,296,6.0,11.0,56,0.00,,,0.00,Wunderground v.1.15,2013-09-09 17:23:00,
2013-09-09 12:28:00,89.9,71.0,29.81,WNW,292,5.0,11.0,54,0.00,,,0.00,Wunderground v.1.15,2013-09-09 17:28:00,
2013-09-09 12:33:00,89.9,71.6,29.81,WSW,244,0.0,9.0,55,0.00,,,0.00,Wunderground v.1.15,2013-09-09 17:33:00,
2013-09-09 12:38:00,90.3,71.4,29.81,SW,226,3.0,9.0,54,0.00,,,0.00,Wunderground v.1.15,2013-09-09 17:38:00,
2013-09-09 12:43:00,90.5,72.7,29.81,WSW,253,1.0,7.0,56,0.00,,,0.00,Wunderground v.1.15,2013-09-09 17:43:00,
2013-09-09 12:48:00,90.7,71.2,29.81,WSW,256,4.0,10.0,53,0.00,,,0.00,Wunderground v.1.15,2013-09-09 17:48:00,
2013-09-09 12:53:00,91.2,71.7,29.81,SW,217,6.0,7.0,53,0.00,,,0.00,Wunderground v.1.15,2013-09-09 17:53:00,
2013-09-09 12:58:00,91.2,71.7,29.81,SSW,193,6.0,10.0,53,0.00,,,0.00,Wunderground v.1.15,2013-09-09 17:58:00,
2013-09-09 13:03:00,91.0,73.1,29.80,WSW,250,8.0,12.0,56,0.00,,,0.00,Wunderground v.1.15,2013-09-09 18:03:00,
2013-09-09 13:08:00,91.2,72.8,29.80,SSW,208,3.0,12.0,55,0.00,,,0.00,Wunderground v.1.15,2013-09-09 18:08:00,
2013-09-09 13:13:00,91.4,72.4,29.80,SSW,202,2.0,10.0,54,0.00,,,0.00,Wunderground v.1.15,2013-09-09 18:13:00,
2013-09-09 13:18:00,91.2,72.2,29.80,SW,229,4.0,14.0,54,0.00,,,0.00,Wunderground v.1.15,2013-09-09 18:18:00,
2013-09-09 13:23:00,91.6,72.0,29.80,SW,217,3.0,7.0,53,0.00,,,0.00,Wunderground v.1.15,2013-09-09 18:23:00,
2013-09-09 13:28:00,91.8,72.2,29.80,SW,216,5.0,11.0,53,0.00,,,0.00,Wunderground v.1.15,2013-09-09 18:28:00,
2013-09-09 13:33:00,92.7,73.1,29.80,SSW,213,10.0,10.0,53,0.00,,,0.00,Wunderground v.1.15,2013-09-09 18:33:00,
2013-09-09 13:38:00,92.7,71.9,29.80,SW,217,0.0,10.0,51,0.00,,,0.00,Wunderground v.1.15,2013-09-09 18:38:00,
2013-09-09 13:43:00,92.7,72.5,29.80,South,185,0.0,10.0,52,0.00,,,0.00,Wunderground v.1.15,2013-09-09 18:43:00,
2013-09-09 13:48:00,92.7,71.3,29.79,SW,227,5.0,11.0,50,0.00,,,0.00,Wunderground v.1.15,2013-09-09 18:48:00,
2013-09-09 13:53:00,92.9,71.5,29.79,WSW,246,7.0,10.0,50,0.00,,,0.00,Wunderground v.1.15,2013-09-09 18:53:00,
2013-09-09 13:58:00,93.4,71.4,29.79,West,270,3.0,10.0,49,0.00,,,0.00,Wunderground v.1.15,2013-09-09 18:58:00,
2013-09-09 14:03:00,94.0,71.3,29.79,SW,227,1.0,7.0,48,0.00,,,0.00,Wunderground v.1.15,2013-09-09 19:03:00,
2013-09-09 14:08:00,94.3,72.8,29.79,SSW,196,0.0,7.0,50,0.00,,,0.00,Wunderground v.1.15,2013-09-09 19:08:00,
2013-09-09 14:13:00,94.3,72.8,29.79,SE,138,0.0,7.0,50,0.00,,,0.00,Wunderground v.1.15,2013-09-09 19:13:00,
2013-09-09 14:18:00,94.3,72.8,29.79,SSW,193,2.0,8.0,50,0.00,,,0.00,Wunderground v.1.15,2013-09-09 19:18:00,
2013-09-09 14:23:00,93.8,72.3,29.79,SSW,206,2.0,10.0,50,0.00,,,0.00,Wunderground v.1.15,2013-09-09 19:23:00,
2013-09-09 14:28:00,94.0,71.9,29.79,SW,226,6.0,10.0,49,0.00,,,0.00,Wunderground v.1.15,2013-09-09 19:28:00,
2013-09-09 14:33:00,93.8,72.3,29.79,SSE,160,2.0,9.0,50,0.00,,,0.00,Wunderground v.1.15,2013-09-09 19:33:00,
2013-09-09 14:38:00,94.0,71.9,29.79,SSW,195,5.0,9.0,49,0.00,,,0.00,Wunderground v.1.15,2013-09-09 19:38:00,
2013-09-09 14:43:00,94.7,71.3,29.79,South,186,6.0,8.0,47,0.00,,,0.00,Wunderground v.1.15,2013-09-09 19:43:00,
2013-09-09 14:48:00,94.7,72.6,29.79,WSW,247,6.0,8.0,49,0.00,,,0.00,Wunderground v.1.15,2013-09-09 19:48:00,
2013-09-09 14:53:00,94.5,71.8,29.79,South,185,1.0,10.0,48,0.00,,,0.00,Wunderground v.1.15,2013-09-09 19:53:00,
2013-09-09 14:58:00,94.9,71.5,29.79,SW,234,4.0,10.0,47,0.00,,,0.00,Wunderground v.1.15,2013-09-09 19:58:00,
2013-09-09 15:03:00,94.7,71.3,29.78,SSW,209,7.0,10.0,47,0.00,,,0.00,Wunderground v.1.15,2013-09-09 20:03:00,
2013-09-09 15:08:00,94.3,71.0,29.78,SW,219,1.0,10.0,47,0.00,,,0.00,Wunderground v.1.15,2013-09-09 20:08:00,
2013-09-09 15:13:00,94.5,70.5,29.78,SSW,212,6.0,12.0,46,0.00,,,0.00,Wunderground v.1.15,2013-09-09 20:13:00,
2013-09-09 15:18:00,94.9,-99.9,29.78,South,185,2.0,12.0,255,0.00,,,0.00,Wunderground v.1.15,2013-09-09 20:18:00,
2013-09-09 15:23:00,95.1,71.7,29.78,SSE,152,0.0,11.0,47,0.00,,,0.00,Wunderground v.1.15,2013-09-09 20:23:00,
2013-09-09 15:28:00,95.1,70.4,29.78,SSE,157,5.0,11.0,45,0.00,,,0.00,Wunderground v.1.15,2013-09-09 20:28:00,
2013-09-09 15:33:00,95.1,70.4,29.77,SSW,208,5.0,10.0,45,0.00,,,0.00,Wunderground v.1.15,2013-09-09 20:33:00,
2013-09-09 15:38:00,95.4,70.7,29.77,WSW,244,4.0,10.0,45,0.00,,,0.00,Wunderground v.1.15,2013-09-09 20:38:00,
2013-09-09 15:43:00,95.1,71.1,29.77,SSW,203,8.0,11.0,46,0.00,,,0.00,Wunderground v.1.15,2013-09-09 20:43:00,
2013-09-09 15:48:00,95.1,71.1,29.77,South,181,1.0,14.0,46,0.00,,,0.00,Wunderground v.1.15,2013-09-09 20:48:00,
2013-09-09 15:53:00,95.4,71.3,29.77,SSE,167,2.0,9.0,46,0.00,,,0.00,Wunderground v.1.15,2013-09-09 20:53:00,
2013-09-09 15:58:00,95.9,71.8,29.77,SSW,213,4.0,12.0,46,0.00,,,0.00,Wunderground v.1.15,2013-09-09 20:58:00,
2013-09-09 16:03:00,94.9,71.5,29.77,SW,230,4.0,10.0,47,0.00,,,0.00,Wunderground v.1.15,2013-09-09 21:03:00,
2013-09-09 16:08:00,95.1,71.7,29.77,SW,219,6.0,11.0,47,0.00,,,0.00,Wunderground v.1.15,2013-09-09 21:08:00,
2013-09-09 16:13:00,95.1,70.4,29.77,SW,219,7.0,10.0,45,0.00,,,0.00,Wunderground v.1.15,2013-09-09 21:13:00,
2013-09-09 16:18:00,94.9,70.9,29.77,SSW,203,6.0,13.0,46,0.00,,,0.00,Wunderground v.1.15,2013-09-09 21:18:00,
2013-09-09 16:23:00,94.9,71.5,29.77,SW,223,10.0,13.0,47,0.00,,,0.00,Wunderground v.1.15,2013-09-09 21:23:00,
2013-09-09 16:29:00,94.9,72.8,29.77,SSW,212,1.0,13.0,49,0.00,,,0.00,Wunderground v.1.15,2013-09-09 21:29:00,
2013-09-09 16:34:00,94.7,72.6,29.77,SSW,210,6.0,13.0,49,0.00,,,0.00,Wunderground v.1.15,2013-09-09 21:34:00,
2013-09-09 16:39:00,94.7,72.6,29.77,SSW,205,3.0,13.0,49,0.00,,,0.00,Wunderground v.1.15,2013-09-09 21:39:00,
2013-09-09 16:44:00,94.5,73.0,29.77,SSE,160,4.0,12.0,50,0.00,,,0.00,Wunderground v.1.15,2013-09-09 21:44:00,
2013-09-09 16:49:00,94.3,73.4,29.77,West,265,0.0,12.0,51,0.00,,,0.00,Wunderground v.1.15,2013-09-09 21:49:00,
2013-09-09 16:54:00,93.8,73.5,29.77,South,172,5.0,10.0,52,0.00,,,0.00,Wunderground v.1.15,2013-09-09 21:54:00,
2013-09-09 16:59:00,93.2,74.6,29.77,SSE,167,5.0,13.0,55,0.00,,,0.00,Wunderground v.1.15,2013-09-09 21:59:00,
2013-09-09 17:04:00,92.9,74.9,29.77,SSE,167,3.0,9.0,56,0.00,,,0.00,Wunderground v.1.15,2013-09-09 22:04:00,
2013-09-09 17:09:00,92.7,75.2,29.77,SSE,167,0.0,10.0,57,0.00,,,0.00,Wunderground v.1.15,2013-09-09 22:09:00,
2013-09-09 17:14:00,92.3,74.9,29.77,SSW,213,2.0,17.0,57,0.00,,,0.00,Wunderground v.1.15,2013-09-09 22:14:00,
2013-09-09 17:19:00,92.3,74.3,29.78,SW,227,1.0,17.0,56,0.00,,,0.00,Wunderground v.1.15,2013-09-09 22:19:00,
2013-09-09 17:24:00,92.1,74.1,29.78,SSW,203,7.0,14.0,56,0.00,,,0.00,Wunderground v.1.15,2013-09-09 22:24:00,
2013-09-09 17:29:00,91.8,73.9,29.78,SSE,152,7.0,14.0,56,0.00,,,0.00,Wunderground v.1.15,2013-09-09 22:29:00,
2013-09-09 17:34:00,91.6,73.7,29.78,SSE,162,6.0,15.0,56,0.00,,,0.00,Wunderground v.1.15,2013-09-09 22:34:00,
2013-09-09 17:39:00,91.6,73.7,29.78,ESE,120,1.0,15.0,56,0.00,,,0.00,Wunderground v.1.15,2013-09-09 22:39:00,
2013-09-09 17:44:00,91.4,73.5,29.78,SW,224,5.0,11.0,56,0.00,,,0.00,Wunderground v.1.15,2013-09-09 22:44:00,
2013-09-09 17:49:00,91.4,74.0,29.78,South,174,0.0,11.0,57,0.00,,,0.00,Wunderground v.1.15,2013-09-09 22:49:00,
2013-09-09 17:54:00,91.4,74.0,29.78,SW,216,5.0,10.0,57,0.00,,,0.00,Wunderground v.1.15,2013-09-09 22:54:00,
2013-09-09 17:59:00,91.0,73.7,29.78,South,182,2.0,12.0,57,0.00,,,0.00,Wunderground v.1.15,2013-09-09 22:59:00,
2013-09-09 18:04:00,90.7,73.9,29.78,SW,234,1.0,10.0,58,0.00,,,0.00,Wunderground v.1.15,2013-09-09 23:04:00,
2013-09-09 18:09:00,90.5,73.7,29.78,South,184,4.0,10.0,58,0.00,,,0.00,Wunderground v.1.15,2013-09-09 23:09:00,
2013-09-09 18:14:00,90.3,73.0,29.78,SSW,208,0.0,7.0,57,0.00,,,0.00,Wunderground v.1.15,2013-09-09 23:14:00,
2013-09-09 18:19:00,90.3,73.5,29.78,SSW,209,2.0,7.0,58,0.00,,,0.00,Wunderground v.1.15,2013-09-09 23:19:00,
2013-09-09 18:24:00,89.9,73.1,29.78,SSW,200,3.0,7.0,58,0.00,,,0.00,Wunderground v.1.15,2013-09-09 23:24:00,
2013-09-09 18:29:00,89.7,73.0,29.78,South,188,3.0,8.0,58,0.00,,,0.00,Wunderground v.1.15,2013-09-09 23:29:00,
2013-09-09 18:34:00,89.5,73.3,29.78,South,178,0.0,7.0,59,0.00,,,0.00,Wunderground v.1.15,2013-09-09 23:34:00,
2013-09-09 18:39:00,89.0,72.8,29.78,South,171,1.0,7.0,59,0.00,,,0.00,Wunderground v.1.15,2013-09-09 23:39:00,
2013-09-09 18:44:00,88.8,72.6,29.79,South,191,2.0,10.0,59,0.00,,,0.00,Wunderground v.1.15,2013-09-09 23:44:00,
2013-09-09 18:49:00,88.6,72.9,29.79,South,184,6.0,10.0,60,0.00,,,0.00,Wunderground v.1.15,2013-09-09 23:49:00,
2013-09-09 18:54:00,88.4,73.2,29.79,SSW,198,1.0,8.0,61,0.00,,,0.00,Wunderground v.1.15,2013-09-09 23:54:00,
2013-09-09 18:59:00,88.0,72.9,29.79,SSW,212,0.0,8.0,61,0.00,,,0.00,Wunderground v.1.15,2013-09-09 23:59:00,
2013-09-09 19:04:00,87.8,73.2,29.79,South,186,2.0,5.0,62,0.00,,,0.00,Wunderground v.1.15,2013-09-10 00:04:00,
2013-09-09 19:09:00,87.6,73.0,29.79,South,188,3.0,6.0,62,0.00,,,0.00,Wunderground v.1.15,2013-09-10 00:09:00,
2013-09-09 19:14:00,87.4,73.3,29.79,SSW,193,0.0,3.0,63,0.00,,,0.00,Wunderground v.1.15,2013-09-10 00:14:00,
2013-09-09 19:19:00,87.0,72.9,29.79,SSW,198,1.0,4.0,63,0.00,,,0.00,Wunderground v.1.15,2013-09-10 00:19:00,
2013-09-09 19:24:00,86.7,73.1,29.79,SSW,198,3.0,5.0,64,0.00,,,0.00,Wunderground v.1.15,2013-09-10 00:24:00,
2013-09-09 19:29:00,86.3,73.1,29.79,South,182,3.0,7.0,65,0.00,,,0.00,Wunderground v.1.15,2013-09-10 00:29:00,
2013-09-09 19:34:00,86.1,73.0,29.79,South,184,5.0,5.0,65,0.00,,,0.00,Wunderground v.1.15,2013-09-10 00:34:00,
2013-09-09 19:39:00,85.9,72.8,29.79,SW,215,1.0,5.0,65,0.00,,,0.00,Wunderground v.1.15,2013-09-10 00:39:00,
2013-09-09 19:44:00,85.9,73.2,29.80,SSW,192,0.0,5.0,66,0.00,,,0.00,Wunderground v.1.15,2013-09-10 00:44:00,
2013-09-09 19:49:00,85.7,73.0,29.80,SSW,203,0.0,7.0,66,0.00,,,0.00,Wunderground v.1.15,2013-09-10 00:49:00,
2013-09-09 19:54:00,85.5,73.3,29.80,SSW,206,1.0,4.0,67,0.00,,,0.00,Wunderground v.1.15,2013-09-10 00:54:00,
2013-09-09 19:59:00,85.3,73.1,29.80,SSW,209,0.0,5.0,67,0.00,,,0.00,Wunderground v.1.15,2013-09-10 00:59:00,
2013-09-09 20:04:00,84.9,73.2,29.80,SSW,206,0.0,2.0,68,0.00,,,0.00,Wunderground v.1.15,2013-09-10 01:04:00,
2013-09-09 20:09:00,84.7,73.4,29.80,SSW,208,0.0,2.0,69,0.00,,,0.00,Wunderground v.1.15,2013-09-10 01:09:00,
2013-09-09 20:14:00,84.5,73.2,29.80,South,186,0.0,4.0,69,0.00,,,0.00,Wunderground v.1.15,2013-09-10 01:14:00,
2013-09-09 20:19:00,84.3,73.0,29.80,South,179,0.0,5.0,69,0.00,,,0.00,Wunderground v.1.15,2013-09-10 01:19:00,
2013-09-09 20:24:00,84.3,73.0,29.80,South,191,1.0,5.0,69,0.00,,,0.00,Wunderground v.1.15,2013-09-10 01:24:00,
2013-09-09 20:30:00,84.1,73.3,29.81,South,188,3.0,3.0,70,0.00,,,0.00,Wunderground v.1.15,2013-09-10 01:30:00,
2013-09-09 20:35:00,84.0,73.6,29.81,South,186,0.0,5.0,71,0.00,,,0.00,Wunderground v.1.15,2013-09-10 01:35:00,
2013-09-09 20:40:00,83.8,73.4,29.81,SSW,213,4.0,4.0,71,0.00,,,0.00,Wunderground v.1.15,2013-09-10 01:40:00,
2013-09-09 20:45:00,83.6,73.2,29.81,South,188,0.0,4.0,71,0.00,,,0.00,Wunderground v.1.15,2013-09-10 01:45:00,
2013-09-09 20:50:00,83.4,73.0,29.81,SW,215,0.0,7.0,71,0.00,,,0.00,Wunderground v.1.15,2013-09-10 01:50:00,
2013-09-09 20:55:00,83.4,73.4,29.81,SW,215,0.0,3.0,72,0.00,,,0.00,Wunderground v.1.15,2013-09-10 01:55:00,
2013-09-09 21:00:00,83.2,73.2,29.82,SSW,209,0.0,1.0,72,0.00,,,0.00,Wunderground v.1.15,2013-09-10 02:00:00,
2013-09-09 21:05:00,83.2,73.2,29.82,SSW,200,2.0,6.0,72,0.00,,,0.00,Wunderground v.1.15,2013-09-10 02:05:00,
2013-09-09 21:10:00,83.0,73.0,29.82,South,189,2.0,2.0,72,0.00,,,0.00,Wunderground v.1.15,2013-09-10 02:10:00,
2013-09-09 21:15:00,83.0,72.6,29.82,South,185,3.0,11.0,71,0.00,,,0.00,Wunderground v.1.15,2013-09-10 02:15:00,
2013-09-09 21:20:00,83.0,72.6,29.82,SSW,205,1.0,3.0,71,0.00,,,0.00,Wunderground v.1.15,2013-09-10 02:20:00,
2013-09-09 21:25:00,82.8,72.8,29.82,SW,233,1.0,5.0,72,0.00,,,0.00,Wunderground v.1.15,2013-09-10 02:25:00,
2013-09-09 21:30:00,82.4,72.5,29.82,SSW,206,0.0,3.0,72,0.00,,,0.00,Wunderground v.1.15,2013-09-10 02:30:00,
2013-09-09 21:35:00,82.4,72.5,29.82,SSW,213,2.0,5.0,72,0.00,,,0.00,Wunderground v.1.15,2013-09-10 02:35:00,
2013-09-09 21:41:00,82.2,72.3,29.82,SW,236,1.0,7.0,72,0.00,,,0.00,Wunderground v.1.15,2013-09-10 02:41:00,
2013-09-09 21:46:00,82.0,72.1,29.82,SW,217,1.0,7.0,72,0.00,,,0.00,Wunderground v.1.15,2013-09-10 02:46:00,
2013-09-09 21:51:00,82.0,72.1,29.82,SW,230,0.0,3.0,72,0.00,,,0.00,Wunderground v.1.15,2013-09-10 02:51:00,
2013-09-09 21:56:00,81.8,71.9,29.82,South,172,2.0,6.0,72,0.00,,,0.00,Wunderground v.1.15,2013-09-10 02:56:00,
2013-09-09 22:01:00,81.6,71.7,29.82,South,189,1.0,3.0,72,0.00,,,0.00,Wunderground v.1.15,2013-09-10 03:01:00,
2013-09-09 22:06:00,81.6,71.7,29.82,South,184,0.0,7.0,72,0.00,,,0.00,Wunderground v.1.15,2013-09-10 03:06:00,
2013-09-09 22:11:00,81.6,71.3,29.82,South,175,0.0,1.0,71,0.00,,,0.00,Wunderground v.1.15,2013-09-10 03:11:00,
2013-09-09 22:16:00,81.6,71.3,29.83,South,179,3.0,7.0,71,0.00,,,0.00,Wunderground v.1.15,2013-09-10 03:16:00,
2013-09-09 22:21:00,81.6,71.3,29.83,SSW,209,2.0,6.0,71,0.00,,,0.00,Wunderground v.1.15,2013-09-10 03:21:00,
2013-09-09 22:26:00,81.6,70.9,29.83,SSW,209,0.0,6.0,70,0.00,,,0.00,Wunderground v.1.15,2013-09-10 03:26:00,
2013-09-09 22:31:00,81.4,70.7,29.83,SSW,212,1.0,3.0,70,0.00,,,0.00,Wunderground v.1.15,2013-09-10 03:31:00,
2013-09-09 22:36:00,81.2,70.5,29.83,SSW,195,1.0,3.0,70,0.00,,,0.00,Wunderground v.1.15,2013-09-10 03:36:00,
2013-09-09 22:41:00,81.2,70.5,29.83,SW,215,1.0,2.0,70,0.00,,,0.00,Wunderground v.1.15,2013-09-10 03:41:00,
2013-09-09 22:46:00,81.2,70.1,29.84,SW,220,2.0,6.0,69,0.00,,,0.00,Wunderground v.1.15,2013-09-10 03:46:00,
2013-09-09 22:51:00,81.1,70.0,29.84,SW,233,0.0,1.0,69,0.00,,,0.00,Wunderground v.1.15,2013-09-10 03:51:00,
2013-09-09 22:56:00,81.1,69.5,29.84,SW,233,1.0,3.0,68,0.00,,,0.00,Wunderground v.1.15,2013-09-10 03:56:00,
2013-09-09 23:01:00,81.1,69.5,29.84,SW,224,0.0,1.0,68,0.00,,,0.00,Wunderground v.1.15,2013-09-10 04:01:00,
2013-09-09 23:02:00,80.9,69.3,29.84,SW,224,0.0,1.0,68,0.00,,,0.00,Wunderground v.1.15,2013-09-10 04:02:00,
2013-09-09 23:07:00,80.7,69.2,29.84,SW,224,0.0,2.0,68,0.00,,,0.00,Wunderground v.1.15,2013-09-10 04:07:00,
2013-09-09 23:12:00,80.5,69.4,29.84,SW,224,0.0,1.0,69,0.00,,,0.00,Wunderground v.1.15,2013-09-10 04:12:00,
2013-09-09 23:17:00,80.1,69.0,29.84,SW,224,0.0,1.0,69,0.00,,,0.00,Wunderground v.1.15,2013-09-10 04:17:00,
2013-09-09 23:22:00,79.9,69.2,29.84,SW,224,0.0,1.0,70,0.00,,,0.00,Wunderground v.1.15,2013-09-10 04:22:00,
2013-09-09 23:27:00,79.6,69.0,29.84,SW,224,0.0,1.0,70,0.00,,,0.00,Wunderground v.1.15,2013-09-10 04:27:00,
2013-09-09 23:32:00,79.4,69.2,29.85,SW,224,0.0,0.0,71,0.00,,,0.00,Wunderground v.1.15,2013-09-10 04:32:00,
2013-09-09 23:37:00,79.0,69.2,29.85,SW,224,0.0,0.0,72,0.00,,,0.00,Wunderground v.1.15,2013-09-10 04:37:00,
2013-09-09 23:42:00,78.6,68.8,29.85,SW,224,0.0,0.0,72,0.00,,,0.00,Wunderground v.1.15,2013-09-10 04:42:00,
2013-09-09 23:47:00,78.3,69.3,29.85,SW,224,0.0,0.0,74,0.00,,,0.00,Wunderground v.1.15,2013-09-10 04:47:00,
2013-09-09 23:52:00,77.9,69.3,29.85,SW,224,0.0,0.0,75,0.00,,,0.00,Wunderground v.1.15,2013-09-10 04:52:00,
2013-09-09 23:57:00,77.4,69.2,29.85,SW,224,0.0,0.0,76,0.00,,,0.00,Wunderground v.1.15,2013-09-10 04:57:00,